createdAt,value
2022-10-02T00:02:11.250Z,78.63
2022-10-02T00:05:00.450Z,78.54
2022-10-02T00:07:28.898Z,79.15
2022-10-02T00:09:56.488Z,79.10
2022-10-02T00:12:22.179Z,78.64
2022-10-02T00:14:47.402Z,78.65
2022-10-02T00:17:18.528Z,78.54
2022-10-02T00:19:41.124Z,78.99
2022-10-02T00:22:30.043Z,78.77
2022-10-02T00:25:08.047Z,78.90
2022-10-02T00:27:42.355Z,79.37
2022-10-02T00:30:05.895Z,79.45
2022-10-02T00:32:42.706Z,79.53
2022-10-02T00:35:24.857Z,79.78
2022-10-02T00:38:06.201Z,79.84
2022-10-02T00:41:06.139Z,79.82
2022-10-02T00:43:49.398Z,79.23
2022-10-02T00:46:50.312Z,79.14
2022-10-02T00:49:25.295Z,79.11
2022-10-02T00:52:14.014Z,79.47
2022-10-02T00:54:42.806Z,80.02
2022-10-02T00:57:28.845Z,80.20
2022-10-02T01:00:11.033Z,80.27
2022-10-02T01:02:36.285Z,79.85
2022-10-02T01:05:00.978Z,80.27
2022-10-02T01:07:23.758Z,79.86
2022-10-02T01:09:46.351Z,80.10
2022-10-02T01:12:08.875Z,79.86
2022-10-02T01:14:36.169Z,80.20
2022-10-02T01:16:58.865Z,80.34
2022-10-02T01:19:30.842Z,80.63
2022-10-02T01:22:00.750Z,80.61
2022-10-02T01:24:35.088Z,81.09
2022-10-02T01:26:58.009Z,80.96
2022-10-02T01:29:20.650Z,81.41
2022-10-02T01:31:43.765Z,81.44
2022-10-02T01:34:06.984Z,81.48
2022-10-02T01:36:30.916Z,81.81
2022-10-02T01:38:54.796Z,81.71
2022-10-02T01:41:17.380Z,81.65
2022-10-02T01:43:47.065Z,81.71
2022-10-02T01:46:47.013Z,81.87
2022-10-02T01:49:21.405Z,81.82
2022-10-02T01:51:58.719Z,81.66
2022-10-02T01:54:26.688Z,82.41
2022-10-02T01:57:03.006Z,82.77
2022-10-02T01:59:36.234Z,81.75
2022-10-02T02:02:19.115Z,82.02
2022-10-02T02:04:58.702Z,81.84
2022-10-02T02:07:34.379Z,81.94
2022-10-02T02:10:21.547Z,82.15
2022-10-02T02:13:07.118Z,82.51
2022-10-02T02:15:39.924Z,82.56
2022-10-02T02:18:18.507Z,82.31
2022-10-02T02:20:50.430Z,82.27
2022-10-02T02:23:17.330Z,82.71
2022-10-02T02:25:45.275Z,81.49
2022-10-02T02:28:12.552Z,81.64
2022-10-02T02:30:38.042Z,81.41
2022-10-02T02:33:11.383Z,81.67
2022-10-02T02:35:39.442Z,81.56
2022-10-02T02:38:08.459Z,80.98
2022-10-02T02:40:36.459Z,81.34
2022-10-02T02:43:11.235Z,81.40
2022-10-02T02:45:41.897Z,80.96
2022-10-02T02:48:10.279Z,81.15
2022-10-02T02:50:38.796Z,80.69
2022-10-02T02:53:14.106Z,80.62
2022-10-02T02:55:49.229Z,80.44
2022-10-02T02:58:54.942Z,80.40
2022-10-02T03:01:17.641Z,79.22
2022-10-02T03:03:40.537Z,79.42
2022-10-02T03:06:19.017Z,79.02
2022-10-02T03:08:42.146Z,79.80
2022-10-02T03:11:56.267Z,79.78
2022-10-02T03:14:39.844Z,79.67
2022-10-02T03:17:20.495Z,80.17
2022-10-02T03:19:57.341Z,80.20
2022-10-02T03:22:46.502Z,80.22
2022-10-02T03:25:19.154Z,79.94
2022-10-02T03:27:52.141Z,80.06
2022-10-02T03:30:20.668Z,80.05
2022-10-02T03:32:46.176Z,80.00
2022-10-02T03:35:13.241Z,80.54
2022-10-02T03:37:36.044Z,80.47
2022-10-02T03:40:01.046Z,80.20
2022-10-02T03:42:26.965Z,80.00
2022-10-02T03:44:49.529Z,80.01
2022-10-02T03:47:12.019Z,80.41
2022-10-02T03:49:34.965Z,80.87
2022-10-02T03:51:57.503Z,80.75
2022-10-02T03:54:21.890Z,80.78
2022-10-02T03:56:55.024Z,80.92
2022-10-02T03:59:30.056Z,80.74
2022-10-02T04:01:55.361Z,80.48
2022-10-02T04:04:29.781Z,80.46
2022-10-02T04:07:00.884Z,80.73
2022-10-02T04:09:51.879Z,80.27
2022-10-02T04:12:40.254Z,80.30
2022-10-02T04:15:28.729Z,80.31
2022-10-02T04:18:32.215Z,80.64
2022-10-02T04:21:03.493Z,80.63
2022-10-02T04:23:52.199Z,80.64
2022-10-02T04:26:16.999Z,80.56
2022-10-02T04:28:44.442Z,80.98
2022-10-02T04:31:13.555Z,80.90
2022-10-02T04:33:38.429Z,81.24
2022-10-02T04:36:07.400Z,81.26
2022-10-02T04:39:14.853Z,81.12
2022-10-02T04:41:57.519Z,80.70
2022-10-02T04:44:43.985Z,80.49
2022-10-02T04:47:26.931Z,81.38
2022-10-02T04:50:07.257Z,81.28
2022-10-02T04:53:17.363Z,81.15
2022-10-02T04:55:52.364Z,81.49
2022-10-02T04:59:02.690Z,81.26
2022-10-02T05:01:42.532Z,81.69
2022-10-02T05:04:23.611Z,81.82
2022-10-02T05:06:51.629Z,82.23
2022-10-02T05:09:24.825Z,82.07
2022-10-02T05:12:10.972Z,81.87
2022-10-02T05:14:52.055Z,82.13
2022-10-02T05:17:17.581Z,82.25
2022-10-02T05:20:06.119Z,81.67
2022-10-02T05:23:01.289Z,81.45
2022-10-02T05:26:01.320Z,81.29
2022-10-02T05:28:58.472Z,81.72
2022-10-02T05:31:39.687Z,81.71
2022-10-02T05:34:34.774Z,81.88
2022-10-02T05:37:15.674Z,81.70
2022-10-02T05:40:03.689Z,81.03
2022-10-02T05:42:37.404Z,80.95
2022-10-02T05:45:25.221Z,80.91
2022-10-02T05:47:50.467Z,80.31
2022-10-02T05:50:17.743Z,80.02
2022-10-02T05:52:55.033Z,79.86
2022-10-02T05:55:36.868Z,79.32
2022-10-02T05:58:16.790Z,78.46
2022-10-02T06:00:47.989Z,78.28
2022-10-02T06:03:31.255Z,78.32
2022-10-02T06:05:59.100Z,77.31
2022-10-02T06:08:58.466Z,76.22
2022-10-02T06:11:32.110Z,75.85
2022-10-02T06:14:23.709Z,75.34
2022-10-02T06:16:54.070Z,75.33
2022-10-02T06:19:24.407Z,75.54
2022-10-02T06:21:53.456Z,76.36
2022-10-02T06:24:25.472Z,75.69
2022-10-02T06:27:22.096Z,75.62
2022-10-02T06:29:59.275Z,76.59
2022-10-02T06:32:30.493Z,76.65
2022-10-02T06:34:53.226Z,75.42
2022-10-02T06:37:42.990Z,74.82
2022-10-02T06:40:45.856Z,73.58
2022-10-02T06:43:45.566Z,73.74
2022-10-02T06:46:51.503Z,74.10
2022-10-02T06:49:35.910Z,73.04
2022-10-02T06:52:38.280Z,72.78
2022-10-02T06:55:26.803Z,73.76
2022-10-02T06:58:13.806Z,72.92
2022-10-02T07:01:14.379Z,72.90
2022-10-02T07:03:44.485Z,72.97
2022-10-02T07:06:28.383Z,73.47
2022-10-02T07:09:10.858Z,72.88
2022-10-02T07:12:04.190Z,72.46
2022-10-02T07:14:47.738Z,71.34
2022-10-02T07:17:37.932Z,71.13
2022-10-02T07:20:15.852Z,71.27
2022-10-02T07:23:07.800Z,70.91
2022-10-02T07:25:55.372Z,71.18
2022-10-02T07:28:18.372Z,70.04
2022-10-02T07:31:06.998Z,68.10
2022-10-02T07:33:35.729Z,67.86
2022-10-02T07:36:03.720Z,67.64
2022-10-02T07:39:08.678Z,67.00
2022-10-02T07:42:22.740Z,62.22
2022-10-02T07:45:23.351Z,60.42
2022-10-02T07:48:04.113Z,59.95
2022-10-02T07:50:59.406Z,56.65
2022-10-02T07:53:27.280Z,54.10
2022-10-02T07:55:53.252Z,55.69
2022-10-02T07:58:34.851Z,56.89
2022-10-02T08:01:03.308Z,58.68
2022-10-02T08:04:04.730Z,60.90
2022-10-02T08:06:27.745Z,61.27
2022-10-02T08:09:20.717Z,61.79
2022-10-02T08:11:56.341Z,62.42
2022-10-02T08:14:35.512Z,62.03
2022-10-02T08:17:04.612Z,62.69
2022-10-02T08:19:51.364Z,62.80
2022-10-02T08:22:34.619Z,63.23
2022-10-02T08:25:02.306Z,63.90
2022-10-02T08:27:28.434Z,62.91
2022-10-02T08:30:03.912Z,61.69
2022-10-02T08:32:34.930Z,62.50
2022-10-02T08:34:58.164Z,61.85
2022-10-02T08:37:44.806Z,62.35
2022-10-02T08:40:38.163Z,62.29
2022-10-02T08:43:22.910Z,62.29
2022-10-02T08:46:23.890Z,62.53
2022-10-02T08:49:13.289Z,61.46
2022-10-02T08:51:54.766Z,61.82
2022-10-02T08:54:42.009Z,59.92
2022-10-02T08:57:04.556Z,58.68
2022-10-02T08:59:58.124Z,59.52
2022-10-02T09:03:09.250Z,56.36
2022-10-02T09:05:44.138Z,58.51
2022-10-02T09:08:35.907Z,59.33
2022-10-02T09:11:37.292Z,58.25
2022-10-02T09:14:38.230Z,58.19
2022-10-02T09:17:19.580Z,59.87
2022-10-02T09:20:19.674Z,58.83
2022-10-02T09:23:23.499Z,57.89
2022-10-02T09:25:48.803Z,55.99
2022-10-02T09:28:56.375Z,55.21
2022-10-02T09:31:56.335Z,55.22
2022-10-02T09:34:52.161Z,55.40
2022-10-02T09:37:46.834Z,56.96
2022-10-02T09:40:58.505Z,55.59
2022-10-02T09:43:52.567Z,55.14
2022-10-02T09:46:27.321Z,57.18
2022-10-02T09:49:04.116Z,56.36
2022-10-02T09:51:44.943Z,54.55
2022-10-02T09:54:38.538Z,53.80
2022-10-02T09:57:28.220Z,53.29
2022-10-02T10:00:21.579Z,52.46
2022-10-02T10:02:44.206Z,53.07
2022-10-02T10:05:36.111Z,53.49
2022-10-02T10:08:22.294Z,53.73
2022-10-02T10:10:54.056Z,54.83
2022-10-02T10:13:49.916Z,53.93
2022-10-02T10:16:49.682Z,52.88
2022-10-02T10:19:46.937Z,52.89
2022-10-02T10:22:09.508Z,52.69
2022-10-02T10:24:58.434Z,51.87
2022-10-02T10:27:39.061Z,51.17
2022-10-02T10:30:07.351Z,50.80
2022-10-02T10:32:48.228Z,51.26
2022-10-02T10:35:36.639Z,51.36
2022-10-02T10:38:32.998Z,50.90
2022-10-02T10:41:20.116Z,52.09
2022-10-02T10:44:02.802Z,51.77
2022-10-02T10:46:34.211Z,52.21
2022-10-02T10:49:11.713Z,52.45
2022-10-02T10:52:07.642Z,51.64
2022-10-02T10:55:03.543Z,52.47
2022-10-02T10:57:52.064Z,52.05
2022-10-02T11:00:43.839Z,51.78
2022-10-02T11:03:09.527Z,51.59
2022-10-02T11:05:53.384Z,51.67
2022-10-02T11:08:30.557Z,52.04
2022-10-02T11:11:15.072Z,52.27
2022-10-02T11:13:44.125Z,52.74
2022-10-02T11:16:13.820Z,51.49
2022-10-02T11:19:07.699Z,52.78
2022-10-02T11:21:39.751Z,52.90
2022-10-02T11:24:14.811Z,53.55
2022-10-02T11:26:40.102Z,53.38
2022-10-02T11:29:31.043Z,53.38
2022-10-02T11:32:00.668Z,53.93
2022-10-02T11:34:51.127Z,55.43
2022-10-02T11:37:25.704Z,56.98
2022-10-02T11:39:48.493Z,59.25
2022-10-02T11:42:49.731Z,60.11
2022-10-02T11:45:33.617Z,60.93
2022-10-02T11:48:12.444Z,61.60
2022-10-02T11:50:58.223Z,61.45
2022-10-02T11:53:39.068Z,63.38
2022-10-02T11:56:22.657Z,64.13
2022-10-02T11:58:47.859Z,64.12
2022-10-02T12:01:22.352Z,64.99
2022-10-02T12:04:12.941Z,65.01
2022-10-02T12:06:50.470Z,64.90
2022-10-02T12:09:40.767Z,65.75
2022-10-02T12:12:14.860Z,65.26
2022-10-02T12:14:47.884Z,65.63
2022-10-02T12:17:31.838Z,65.34
2022-10-02T12:20:34.492Z,64.93
2022-10-02T12:23:30.795Z,64.14
2022-10-02T12:26:18.976Z,64.30
2022-10-02T12:28:58.041Z,64.01
2022-10-02T12:31:58.769Z,63.96
2022-10-02T12:34:51.990Z,63.87
2022-10-02T12:37:23.573Z,64.01
2022-10-02T12:40:15.570Z,63.63
2022-10-02T12:43:09.390Z,63.81
2022-10-02T12:45:44.044Z,64.29
2022-10-02T12:48:45.884Z,64.56
2022-10-02T12:51:26.977Z,64.06
2022-10-02T12:54:33.397Z,65.57
2022-10-02T12:57:39.281Z,65.71
2022-10-02T13:00:08.711Z,65.61
2022-10-02T13:03:05.572Z,65.47
2022-10-02T13:05:32.162Z,66.68
2022-10-02T13:08:10.014Z,66.40
2022-10-02T13:10:46.013Z,66.47
2022-10-02T13:13:42.005Z,66.76
2022-10-02T13:16:25.610Z,66.38
2022-10-02T13:19:30.505Z,66.34
2022-10-02T13:22:10.047Z,66.16
2022-10-02T13:24:32.572Z,66.20
2022-10-02T13:27:19.692Z,66.96
2022-10-02T13:29:46.470Z,66.77
2022-10-02T13:32:38.936Z,66.38
2022-10-02T13:35:31.421Z,66.31
2022-10-02T13:38:23.508Z,66.14
2022-10-02T13:41:04.176Z,65.09
2022-10-02T13:43:26.804Z,65.83
2022-10-02T13:46:06.801Z,65.00
2022-10-02T13:48:55.014Z,65.52
2022-10-02T13:51:27.607Z,65.60
2022-10-02T13:54:09.108Z,65.58
2022-10-02T13:56:43.316Z,65.18
2022-10-02T13:59:31.398Z,65.27
2022-10-02T14:02:30.504Z,65.42
2022-10-02T14:05:14.389Z,64.73
2022-10-02T14:08:02.415Z,65.21
2022-10-02T14:11:02.680Z,66.46
2022-10-02T14:14:03.397Z,66.69
2022-10-02T14:16:42.013Z,66.86
2022-10-02T14:19:07.532Z,67.13
2022-10-02T14:21:48.536Z,67.73
2022-10-02T14:25:00.473Z,67.97
2022-10-02T14:27:31.796Z,68.46
2022-10-02T14:30:33.531Z,68.61
2022-10-02T14:33:16.764Z,68.47
2022-10-02T14:35:57.646Z,68.26
2022-10-02T14:38:35.647Z,68.28
2022-10-02T14:41:06.089Z,67.51
2022-10-02T14:44:03.697Z,68.28
2022-10-02T14:46:26.282Z,68.74
2022-10-02T14:49:07.381Z,69.35
2022-10-02T14:51:43.251Z,69.71
2022-10-02T14:54:43.363Z,69.52
2022-10-02T14:57:32.714Z,69.85
2022-10-02T15:00:17.656Z,70.84
2022-10-02T15:02:58.527Z,71.58
2022-10-02T15:05:39.628Z,72.00
2022-10-02T15:08:26.058Z,73.36
2022-10-02T15:10:49.493Z,74.50
2022-10-02T15:13:18.737Z,74.44
2022-10-02T15:16:14.742Z,74.62
2022-10-02T15:18:46.222Z,75.06
2022-10-02T15:21:29.690Z,75.09
2022-10-02T15:23:56.593Z,74.97
2022-10-02T15:26:24.744Z,75.10
2022-10-02T15:29:21.138Z,75.18
2022-10-02T15:32:05.215Z,75.26
2022-10-02T15:34:52.744Z,75.61
2022-10-02T15:37:39.583Z,75.82
2022-10-02T15:40:14.492Z,75.61
2022-10-02T15:42:49.743Z,76.04
2022-10-02T15:45:26.247Z,76.02
2022-10-02T15:48:12.011Z,75.92
2022-10-02T15:50:44.070Z,75.81
2022-10-02T15:53:44.146Z,76.07
2022-10-02T15:56:40.498Z,77.49
2022-10-02T15:59:32.295Z,77.74
2022-10-02T16:02:06.887Z,78.59
2022-10-02T16:04:39.517Z,78.41
2022-10-02T16:07:20.323Z,78.19
2022-10-02T16:10:02.977Z,78.88
2022-10-02T16:12:42.038Z,78.89
2022-10-02T16:15:10.466Z,79.03
2022-10-02T16:17:52.295Z,79.08
2022-10-02T16:20:33.342Z,79.19
2022-10-02T16:23:14.572Z,79.61
2022-10-02T16:26:12.972Z,79.66
2022-10-02T16:29:01.554Z,79.53
2022-10-02T16:31:52.744Z,79.93
2022-10-02T16:34:43.719Z,79.72
2022-10-02T16:37:23.113Z,80.09
2022-10-02T16:40:41.156Z,79.96
2022-10-02T16:43:37.428Z,79.64
2022-10-02T16:45:59.935Z,79.93
2022-10-02T16:48:31.699Z,79.66
2022-10-02T16:51:08.124Z,79.62
2022-10-02T16:53:58.083Z,79.99
2022-10-02T16:56:32.271Z,80.23
2022-10-02T16:59:04.346Z,80.30
2022-10-02T17:02:12.694Z,80.82
2022-10-02T17:05:03.410Z,81.01
2022-10-02T17:07:55.428Z,81.06
2022-10-02T17:10:22.747Z,80.64
2022-10-02T17:13:11.620Z,81.25
2022-10-02T17:15:46.293Z,81.10
2022-10-02T17:18:33.472Z,80.89
2022-10-02T17:21:11.047Z,80.90
2022-10-02T17:23:42.695Z,80.96
2022-10-02T17:26:23.786Z,81.07
2022-10-02T17:28:54.663Z,80.45
2022-10-02T17:31:36.844Z,80.77
2022-10-02T17:34:21.105Z,80.49
2022-10-02T17:37:04.018Z,80.88
2022-10-02T17:39:48.073Z,80.82
2022-10-02T17:42:30.387Z,80.85
2022-10-02T17:45:04.313Z,80.52
2022-10-02T17:47:59.180Z,80.10
2022-10-02T17:50:51.583Z,80.14
2022-10-02T17:53:39.049Z,80.46
2022-10-02T17:56:37.343Z,80.28
2022-10-02T17:59:11.828Z,80.89
2022-10-02T18:02:00.605Z,81.04
2022-10-02T18:04:45.957Z,81.03
2022-10-02T18:07:18.448Z,80.67
2022-10-02T18:10:02.014Z,80.23
2022-10-02T18:12:51.718Z,80.21
2022-10-02T18:15:46.792Z,79.38
2022-10-02T18:18:24.276Z,79.69
2022-10-02T18:21:17.526Z,79.38
2022-10-02T18:23:55.314Z,79.13
2022-10-02T18:26:29.561Z,79.34
2022-10-02T18:29:01.055Z,79.03
2022-10-02T18:32:04.366Z,78.85
2022-10-02T18:34:52.225Z,78.88
2022-10-02T18:37:22.101Z,79.13
2022-10-02T18:40:22.547Z,79.18
2022-10-02T18:42:49.176Z,78.36
2022-10-02T18:45:32.790Z,78.72
2022-10-02T18:48:19.705Z,78.56
2022-10-02T18:51:00.827Z,78.56
2022-10-02T18:53:38.530Z,78.90
2022-10-02T18:56:12.466Z,78.83
2022-10-02T18:58:54.811Z,78.95
2022-10-02T19:01:20.271Z,78.14
2022-10-02T19:03:54.737Z,78.53
2022-10-02T19:06:29.342Z,78.30
2022-10-02T19:09:07.068Z,78.17
2022-10-02T19:11:32.412Z,78.34
2022-10-02T19:13:55.375Z,78.49
2022-10-02T19:16:25.356Z,78.37
2022-10-02T19:18:47.964Z,77.80
2022-10-02T19:21:13.664Z,78.10
2022-10-02T19:23:53.289Z,77.81
2022-10-02T19:26:25.766Z,77.85
2022-10-02T19:28:55.170Z,78.07
2022-10-02T19:31:23.610Z,78.02
2022-10-02T19:34:24.401Z,77.78
2022-10-02T19:36:50.480Z,76.98
2022-10-02T19:39:38.544Z,76.82
2022-10-02T19:42:07.549Z,76.55
2022-10-02T19:44:39.659Z,76.48
2022-10-02T19:47:12.311Z,76.34
2022-10-02T19:49:39.472Z,76.62
2022-10-02T19:52:02.221Z,76.71
2022-10-02T19:54:36.811Z,77.22
2022-10-02T19:57:05.645Z,76.94
2022-10-02T19:59:42.633Z,76.49
2022-10-02T20:02:29.835Z,76.62
2022-10-02T20:04:55.076Z,76.45
2022-10-02T20:07:20.990Z,76.33
2022-10-02T20:09:49.636Z,76.61
2022-10-02T20:12:27.001Z,76.44
2022-10-02T20:15:39.821Z,76.44
2022-10-02T20:18:02.302Z,76.47
2022-10-02T20:20:24.786Z,77.06
2022-10-02T20:23:01.764Z,76.92
2022-10-02T20:25:31.564Z,77.03
2022-10-02T20:28:10.282Z,77.58
2022-10-02T20:30:40.872Z,77.11
2022-10-02T20:33:18.209Z,77.46
2022-10-02T20:35:45.199Z,77.88
2022-10-02T20:38:18.343Z,77.74
2022-10-02T20:40:46.315Z,77.82
2022-10-02T20:43:17.619Z,77.89
2022-10-02T20:45:59.287Z,77.97
2022-10-02T20:49:07.462Z,78.16
2022-10-02T20:51:45.080Z,78.32
2022-10-02T20:54:31.922Z,79.27
2022-10-02T20:57:22.047Z,79.05
2022-10-02T21:00:15.784Z,79.83
2022-10-02T21:03:06.636Z,79.75
2022-10-02T21:05:48.778Z,80.27
2022-10-02T21:08:26.848Z,80.20
2022-10-02T21:11:15.982Z,80.04
2022-10-02T21:14:00.077Z,80.40
2022-10-02T21:16:56.344Z,79.99
2022-10-02T21:19:56.478Z,80.56
2022-10-02T21:22:43.800Z,80.79
2022-10-02T21:25:21.672Z,80.57
2022-10-02T21:28:05.329Z,80.82
2022-10-02T21:31:01.255Z,80.85
2022-10-02T21:34:07.631Z,81.16
2022-10-02T21:36:33.904Z,81.49
2022-10-02T21:38:59.052Z,81.29
2022-10-02T21:41:24.392Z,81.52
2022-10-02T21:44:06.039Z,81.78
2022-10-02T21:46:37.512Z,82.34
2022-10-02T21:49:19.089Z,82.26
2022-10-02T21:52:12.604Z,82.40
2022-10-02T21:55:00.955Z,82.36
2022-10-02T21:57:45.107Z,82.71
2022-10-02T22:00:13.975Z,82.26
2022-10-02T22:03:10.195Z,82.47
2022-10-02T22:05:48.332Z,82.67
2022-10-02T22:08:33.831Z,82.77
2022-10-02T22:11:24.099Z,82.93
2022-10-02T22:13:49.744Z,83.01
2022-10-02T22:16:40.361Z,83.57
2022-10-02T22:19:24.922Z,83.28
2022-10-02T22:21:47.499Z,83.23
2022-10-02T22:24:35.722Z,83.56
2022-10-02T22:27:04.896Z,83.47
2022-10-02T22:29:39.498Z,83.27
2022-10-02T22:32:42.279Z,83.05
2022-10-02T22:35:21.070Z,83.53
2022-10-02T22:37:54.890Z,83.14
2022-10-02T22:40:23.363Z,83.13
2022-10-02T22:42:53.467Z,83.00
2022-10-02T22:45:32.138Z,82.97
2022-10-02T22:48:05.064Z,83.29
2022-10-02T22:50:35.923Z,83.57
2022-10-02T22:53:12.652Z,83.59
2022-10-02T22:55:45.796Z,83.64
2022-10-02T22:58:21.025Z,83.54
2022-10-02T23:01:08.194Z,83.66
2022-10-02T23:03:39.730Z,83.95
2022-10-02T23:06:04.635Z,83.91
2022-10-02T23:08:46.779Z,84.14
2022-10-02T23:11:35.593Z,83.98
2022-10-02T23:14:14.504Z,84.11
2022-10-02T23:16:44.881Z,84.03
2022-10-02T23:19:19.396Z,83.94
2022-10-02T23:21:58.007Z,83.81
2022-10-02T23:24:26.246Z,83.92
2022-10-02T23:26:48.686Z,83.91
2022-10-02T23:29:25.629Z,84.02
2022-10-02T23:32:20.173Z,83.65
2022-10-02T23:34:59.743Z,83.73
2022-10-02T23:37:32.299Z,83.36
2022-10-02T23:40:16.164Z,83.50
2022-10-02T23:42:45.088Z,83.64
2022-10-02T23:45:40.092Z,83.56
2022-10-02T23:48:05.953Z,83.42
2022-10-02T23:50:37.249Z,83.25
2022-10-02T23:53:27.839Z,83.31
2022-10-02T23:56:22.509Z,83.16
2022-10-02T23:59:06.630Z,83.43
